createdAt,value
2022-11-05T00:00:21.292Z,-39.78
2022-11-05T00:01:21.389Z,-39.78
2022-11-05T00:02:21.236Z,-39.78
2022-11-05T00:03:21.239Z,-39.78
2022-11-05T00:04:21.276Z,-39.78
2022-11-05T00:05:21.193Z,-39.78
2022-11-05T00:06:21.188Z,-39.78
2022-11-05T00:07:21.181Z,-39.78
2022-11-05T00:08:21.149Z,-39.78
2022-11-05T00:09:21.155Z,-39.78
2022-11-05T00:10:21.114Z,-39.78
2022-11-05T00:11:21.100Z,-39.78
2022-11-05T00:12:21.109Z,-39.78
2022-11-05T00:13:21.133Z,-39.78
2022-11-05T00:14:21.067Z,-39.78
2022-11-05T00:15:21.049Z,-39.78
2022-11-05T00:16:21.029Z,-39.78
2022-11-05T00:17:21.036Z,-39.78
2022-11-05T00:18:21.008Z,-39.78
2022-11-05T00:19:20.996Z,-39.78
2022-11-05T00:20:20.979Z,-39.78
2022-11-05T00:21:20.967Z,-39.78
2022-11-05T00:22:20.941Z,-39.78
2022-11-05T00:23:20.957Z,-39.78
2022-11-05T00:24:24.258Z,-39.78
2022-11-05T00:25:20.956Z,-39.78
2022-11-05T00:26:20.895Z,-39.78
2022-11-05T00:27:20.890Z,-39.78
2022-11-05T00:28:20.873Z,-39.78
2022-11-05T00:29:20.883Z,-39.78
2022-11-05T00:30:20.843Z,-39.78
2022-11-05T00:31:20.850Z,-39.78
2022-11-05T00:32:20.824Z,-39.78
2022-11-05T00:33:20.825Z,-39.78
2022-11-05T00:34:20.831Z,-39.78
2022-11-05T00:35:20.788Z,-39.78
2022-11-05T00:36:20.754Z,-39.78
2022-11-05T00:37:20.752Z,-39.78
2022-11-05T00:38:20.868Z,-39.78
2022-11-05T00:39:20.721Z,-39.78
2022-11-05T00:40:20.706Z,-39.78
2022-11-05T00:41:20.725Z,-39.78
2022-11-05T00:42:20.694Z,-39.78
2022-11-05T00:43:20.694Z,-39.78
2022-11-05T00:44:20.653Z,-39.78
2022-11-05T00:45:20.640Z,-39.78
2022-11-05T00:46:20.641Z,-39.78
2022-11-05T00:47:20.609Z,-39.78
2022-11-05T00:48:20.613Z,-39.78
2022-11-05T00:49:20.609Z,-39.78
2022-11-05T00:50:20.595Z,-39.78
2022-11-05T00:51:20.564Z,-39.78
2022-11-05T00:52:20.554Z,-39.78
2022-11-05T00:53:20.545Z,-39.78
2022-11-05T00:54:20.527Z,-39.78
2022-11-05T00:55:20.507Z,-39.78
2022-11-05T00:56:20.540Z,-39.78
2022-11-05T00:57:20.491Z,-39.78
2022-11-05T00:58:20.480Z,-39.78
2022-11-05T00:59:20.462Z,-39.78
2022-11-05T01:00:20.443Z,-39.78
2022-11-05T01:01:20.515Z,-39.78
2022-11-05T01:02:20.507Z,-39.78
2022-11-05T01:03:20.448Z,-39.78
2022-11-05T01:04:20.406Z,-39.78
2022-11-05T01:05:20.380Z,-39.78
2022-11-05T01:06:20.385Z,-39.78
2022-11-05T01:07:20.348Z,-39.78
2022-11-05T01:08:20.347Z,-39.78
2022-11-05T01:09:20.339Z,-39.78
2022-11-05T01:10:20.308Z,-39.78
2022-11-05T01:11:20.295Z,-39.78
2022-11-05T01:12:20.270Z,-39.78
2022-11-05T01:13:20.689Z,-39.78
2022-11-05T01:14:20.270Z,-39.78
2022-11-05T01:15:20.239Z,-39.78
2022-11-05T01:16:20.228Z,-39.78
2022-11-05T01:17:20.230Z,-39.78
2022-11-05T01:18:20.210Z,-39.78
2022-11-05T01:19:20.203Z,-39.78
2022-11-05T01:20:19.194Z,-39.78
2022-11-05T01:21:20.170Z,-39.78
2022-11-05T01:22:20.153Z,-39.78
2022-11-05T01:23:20.858Z,-39.78
2022-11-05T01:24:20.140Z,-39.78
2022-11-05T01:25:20.149Z,-39.78
2022-11-05T01:26:20.087Z,-39.78
2022-11-05T01:27:20.209Z,-39.78
2022-11-05T01:28:20.155Z,-39.78
2022-11-05T01:29:20.091Z,-39.78
2022-11-05T01:30:20.080Z,-39.78
2022-11-05T01:31:20.054Z,-39.78
2022-11-05T01:32:19.041Z,-39.78
2022-11-05T01:33:19.997Z,-39.78
2022-11-05T01:34:20.026Z,-39.78
2022-11-05T01:35:19.986Z,-39.78
2022-11-05T01:36:19.950Z,-39.78
2022-11-05T01:37:19.952Z,-39.78
2022-11-05T01:38:19.930Z,-39.78
2022-11-05T01:39:19.967Z,-39.78
2022-11-05T01:40:19.971Z,-39.78
2022-11-05T01:41:19.907Z,-39.78
2022-11-05T01:42:19.876Z,-39.78
2022-11-05T01:43:19.862Z,-39.78
2022-11-05T01:44:19.853Z,-39.78
2022-11-05T01:45:19.890Z,-39.78
2022-11-05T01:46:19.813Z,-39.78
2022-11-05T01:47:19.844Z,-39.78
2022-11-05T01:48:19.815Z,-39.78
2022-11-05T01:49:19.831Z,-39.78
2022-11-05T01:50:19.774Z,-39.78
2022-11-05T01:51:19.801Z,-39.78
2022-11-05T01:52:19.776Z,-39.78
2022-11-05T01:53:19.757Z,-39.78
2022-11-05T01:54:19.737Z,-39.78
2022-11-05T01:55:19.752Z,-39.78
2022-11-05T01:56:19.706Z,-39.78
2022-11-05T01:57:18.757Z,-39.78
2022-11-05T01:58:19.659Z,-39.78
2022-11-05T01:59:19.675Z,-39.78
2022-11-05T02:00:19.646Z,-39.78
2022-11-05T02:01:19.756Z,-39.78
2022-11-05T02:02:19.719Z,-39.78
2022-11-05T02:03:19.596Z,-39.78
2022-11-05T02:04:19.647Z,-39.78
2022-11-05T02:05:19.562Z,-39.78
2022-11-05T02:06:19.558Z,-39.78
2022-11-05T02:07:19.579Z,-39.78
2022-11-05T02:08:19.561Z,-39.78
2022-11-05T02:09:19.527Z,-39.78
2022-11-05T02:10:19.503Z,-39.78
2022-11-05T02:11:19.609Z,-39.78
2022-11-05T02:12:19.484Z,-39.78
2022-11-05T02:13:19.472Z,-39.78
2022-11-05T02:14:19.471Z,-39.78
2022-11-05T02:15:19.445Z,-39.78
2022-11-05T02:16:19.457Z,-39.78
2022-11-05T02:17:19.413Z,-39.78
2022-11-05T02:18:19.395Z,-39.78
2022-11-05T02:19:19.393Z,-39.78
2022-11-05T02:20:19.385Z,-39.78
2022-11-05T02:21:19.349Z,-39.78
2022-11-05T02:22:19.344Z,-39.78
2022-11-05T02:23:19.327Z,-39.78
2022-11-05T02:24:19.368Z,-39.78
2022-11-05T02:25:19.326Z,-39.78
2022-11-05T02:26:19.291Z,-39.78
2022-11-05T02:27:19.305Z,-39.78
2022-11-05T02:28:19.252Z,-39.78
2022-11-05T02:29:19.266Z,-39.78
2022-11-05T02:30:19.230Z,-39.78
2022-11-05T02:31:20.438Z,-39.78
2022-11-05T02:32:19.207Z,-39.78
2022-11-05T02:33:19.204Z,-39.78
2022-11-05T02:34:19.236Z,-39.78
2022-11-05T02:35:19.222Z,-39.78
2022-11-05T02:36:19.149Z,-39.78
2022-11-05T02:37:19.140Z,-39.78
2022-11-05T02:38:19.118Z,-39.78
2022-11-05T02:39:19.134Z,-39.78
2022-11-05T02:40:19.095Z,-39.78
2022-11-05T02:41:19.093Z,-39.78
2022-11-05T02:42:19.089Z,-39.78
2022-11-05T02:43:19.061Z,-39.78
2022-11-05T02:44:19.099Z,-39.78
2022-11-05T02:45:19.026Z,-39.78
2022-11-05T02:46:19.018Z,-39.78
2022-11-05T02:47:19.003Z,-39.78
2022-11-05T02:48:19.013Z,-39.78
2022-11-05T02:49:18.984Z,-39.78
2022-11-05T02:50:18.963Z,-39.78
2022-11-05T02:51:18.982Z,-39.78
2022-11-05T02:52:18.992Z,-39.78
2022-11-05T02:53:18.920Z,-39.78
2022-11-05T02:54:18.956Z,-39.78
2022-11-05T02:55:18.902Z,-39.78
2022-11-05T02:56:18.903Z,-39.78
2022-11-05T02:57:18.883Z,-39.78
2022-11-05T02:58:18.857Z,-39.78
2022-11-05T02:59:18.902Z,-39.78
2022-11-05T03:00:18.947Z,-39.78
2022-11-05T03:01:18.974Z,-39.78
2022-11-05T03:02:18.969Z,-39.78
2022-11-05T03:03:18.783Z,-39.78
2022-11-05T03:04:18.820Z,-39.78
2022-11-05T03:05:18.769Z,-39.78
2022-11-05T03:06:18.783Z,-39.78
2022-11-05T03:07:18.748Z,-39.78
2022-11-05T03:08:18.721Z,-39.78
2022-11-05T03:09:18.729Z,-39.78
2022-11-05T03:10:18.762Z,-39.78
2022-11-05T03:11:18.684Z,-39.78
2022-11-05T03:12:18.666Z,-39.78
2022-11-05T03:13:18.651Z,-39.78
2022-11-05T03:14:18.646Z,-39.78
2022-11-05T03:15:18.660Z,-39.78
2022-11-05T03:16:18.609Z,-39.78
2022-11-05T03:17:18.600Z,-39.78
2022-11-05T03:18:18.584Z,-39.78
2022-11-05T03:19:18.575Z,-39.78
2022-11-05T03:20:18.574Z,-39.78
2022-11-05T03:21:18.555Z,-39.78
2022-11-05T03:22:18.526Z,-39.78
2022-11-05T03:23:18.535Z,-39.78
2022-11-05T03:24:18.499Z,-39.78
2022-11-05T03:25:18.506Z,-39.78
2022-11-05T03:26:18.478Z,-39.78
2022-11-05T03:27:18.479Z,-39.78
2022-11-05T03:28:18.452Z,-39.78
2022-11-05T03:29:18.444Z,-39.78
2022-11-05T03:30:18.450Z,-39.78
2022-11-05T03:31:18.415Z,-39.78
2022-11-05T03:32:18.570Z,-39.78
2022-11-05T03:33:18.393Z,-39.78
2022-11-05T03:34:18.368Z,-39.78
2022-11-05T03:35:18.373Z,-39.78
2022-11-05T03:36:18.347Z,-39.78
2022-11-05T03:37:18.387Z,-39.78
2022-11-05T03:38:18.326Z,-39.78
2022-11-05T03:39:18.313Z,-39.78
2022-11-05T03:40:18.304Z,-39.78
2022-11-05T03:41:18.280Z,-39.78
2022-11-05T03:42:18.278Z,-39.78
2022-11-05T03:43:18.250Z,-39.78
2022-11-05T03:44:18.468Z,-39.78
2022-11-05T03:45:18.263Z,-39.78
2022-11-05T03:46:18.279Z,-39.78
2022-11-05T03:47:18.189Z,-39.78
2022-11-05T03:48:18.228Z,-39.78
2022-11-05T03:49:18.183Z,-39.78
2022-11-05T03:50:18.174Z,-39.78
2022-11-05T03:51:18.148Z,-39.78
2022-11-05T03:52:18.144Z,-39.78
2022-11-05T03:53:18.129Z,-39.78
2022-11-05T03:54:18.102Z,-39.78
2022-11-05T03:55:18.106Z,-39.78
2022-11-05T03:56:18.085Z,-39.78
2022-11-05T03:57:18.065Z,-39.78
2022-11-05T03:58:18.086Z,-39.78
2022-11-05T03:59:18.068Z,-39.78
2022-11-05T04:00:18.062Z,-39.78
2022-11-05T04:01:17.200Z,-39.78
2022-11-05T04:02:18.164Z,-39.78
2022-11-05T04:03:17.977Z,-39.78
2022-11-05T04:04:17.997Z,-39.78
2022-11-05T04:05:17.969Z,-39.78
2022-11-05T04:06:19.045Z,-39.78
2022-11-05T04:07:17.945Z,-39.78
2022-11-05T04:08:17.915Z,-39.78
2022-11-05T04:09:17.921Z,-39.78
2022-11-05T04:10:17.888Z,-39.78
2022-11-05T04:11:17.881Z,-39.78
2022-11-05T04:12:17.886Z,-39.78
2022-11-05T04:13:17.851Z,-39.78
2022-11-05T04:14:17.838Z,-39.78
2022-11-05T04:15:17.841Z,-39.78
2022-11-05T04:16:17.952Z,-39.78
2022-11-05T04:17:17.794Z,-39.78
2022-11-05T04:18:17.826Z,-39.78
2022-11-05T04:19:21.267Z,-39.78
2022-11-05T04:20:17.808Z,-39.78
2022-11-05T04:21:17.774Z,-39.78
2022-11-05T04:22:39.802Z,-39.78
2022-11-05T04:23:17.710Z,-39.78
2022-11-05T04:24:17.697Z,-39.78
2022-11-05T04:25:17.756Z,-39.78
2022-11-05T04:26:17.703Z,-39.78
2022-11-05T04:27:16.657Z,-39.78
2022-11-05T04:28:17.658Z,-39.78
2022-11-05T04:29:17.635Z,-39.78
2022-11-05T04:30:17.624Z,-39.78
2022-11-05T04:31:17.659Z,-39.78
2022-11-05T04:32:17.587Z,-39.78
2022-11-05T04:33:17.587Z,-39.78
2022-11-05T04:34:17.564Z,-39.78
2022-11-05T04:35:17.616Z,-39.78
2022-11-05T04:36:17.550Z,-39.78
2022-11-05T04:37:17.531Z,-39.78
2022-11-05T04:38:17.505Z,-39.78
2022-11-05T04:39:17.536Z,-39.78
2022-11-05T04:40:17.488Z,-39.78
2022-11-05T04:41:17.474Z,-39.78
2022-11-05T04:42:17.467Z,-39.78
2022-11-05T04:43:18.024Z,-39.78
2022-11-05T04:44:17.447Z,-39.78
2022-11-05T04:45:17.422Z,-39.78
2022-11-05T04:46:17.467Z,-39.78
2022-11-05T04:47:17.421Z,-39.78
2022-11-05T04:48:17.387Z,-39.78
2022-11-05T04:49:17.377Z,-39.78
2022-11-05T04:50:17.340Z,-39.78
2022-11-05T04:51:17.367Z,-39.78
2022-11-05T04:52:17.345Z,-39.78
2022-11-05T04:53:16.314Z,-39.78
2022-11-05T04:54:17.300Z,-39.78
2022-11-05T04:55:17.322Z,-39.78
2022-11-05T04:56:17.285Z,-39.78
2022-11-05T04:57:17.262Z,-39.78
2022-11-05T04:58:17.242Z,-39.78
2022-11-05T04:59:17.229Z,-39.78
2022-11-05T05:00:17.223Z,-39.78
2022-11-05T05:01:17.413Z,-39.78
2022-11-05T05:02:17.257Z,-39.78
2022-11-05T05:03:17.174Z,-39.78
2022-11-05T05:04:17.180Z,-39.78
2022-11-05T05:05:17.155Z,-39.78
2022-11-05T05:06:17.171Z,-39.78
2022-11-05T05:07:17.117Z,-39.78
2022-11-05T05:08:17.121Z,-39.78
2022-11-05T05:09:17.093Z,-39.78
2022-11-05T05:10:17.082Z,-39.78
2022-11-05T05:11:17.085Z,-39.78
2022-11-05T05:12:17.055Z,-39.78
2022-11-05T05:13:17.066Z,-39.78
2022-11-05T05:14:17.052Z,-39.78
2022-11-05T05:15:17.030Z,-39.78
2022-11-05T05:16:17.029Z,-39.78
2022-11-05T05:17:17.004Z,-39.78
2022-11-05T05:18:16.982Z,-39.78
2022-11-05T05:19:17.043Z,-39.78
2022-11-05T05:20:16.955Z,-39.78
2022-11-05T05:21:16.982Z,-39.78
2022-11-05T05:22:16.930Z,-39.78
2022-11-05T05:23:16.910Z,-39.78
2022-11-05T05:24:16.899Z,-39.78
2022-11-05T05:25:16.897Z,-39.78
2022-11-05T05:26:16.880Z,-39.78
2022-11-05T05:27:16.865Z,-39.78
2022-11-05T05:28:16.834Z,-39.78
2022-11-05T05:29:16.879Z,-39.78
2022-11-05T05:30:16.825Z,-39.78
2022-11-05T05:31:15.803Z,-39.78
2022-11-05T05:32:16.851Z,-39.78
2022-11-05T05:33:16.777Z,-39.78
2022-11-05T05:34:16.757Z,-39.78
2022-11-05T05:35:16.762Z,-39.78
2022-11-05T05:36:16.744Z,-39.78
2022-11-05T05:37:16.754Z,-39.78
2022-11-05T05:38:16.781Z,-39.78
2022-11-05T05:39:16.719Z,-39.78
2022-11-05T05:40:16.692Z,-39.78
2022-11-05T05:41:16.671Z,-39.78
2022-11-05T05:42:16.678Z,-39.78
2022-11-05T05:43:16.649Z,-39.78
2022-11-05T05:44:16.648Z,-39.78
2022-11-05T05:45:16.625Z,-39.78
2022-11-05T05:46:16.644Z,-39.78
2022-11-05T05:47:16.600Z,-39.78
2022-11-05T05:48:16.574Z,-39.78
2022-11-05T05:49:16.592Z,-39.78
2022-11-05T05:50:16.560Z,-39.78
2022-11-05T05:51:16.539Z,-39.78
2022-11-05T05:52:16.522Z,-39.78
2022-11-05T05:53:16.519Z,-39.78
2022-11-05T05:54:16.535Z,-39.78
2022-11-05T05:55:16.495Z,-39.78
2022-11-05T05:56:16.472Z,-39.78
2022-11-05T05:57:16.472Z,-39.78
2022-11-05T05:58:16.441Z,-39.78
2022-11-05T05:59:16.431Z,-39.78
2022-11-05T06:00:16.412Z,-39.78
2022-11-05T06:01:19.226Z,-39.78
2022-11-05T06:02:16.557Z,-39.78
2022-11-05T06:03:16.373Z,-39.78
2022-11-05T06:04:16.358Z,-39.78
2022-11-05T06:05:16.349Z,-39.78
2022-11-05T06:06:16.344Z,-39.78
2022-11-05T06:07:16.320Z,-39.78
2022-11-05T06:08:16.310Z,-39.78
2022-11-05T06:09:16.293Z,-39.78
2022-11-05T06:10:16.318Z,-39.78
2022-11-05T06:11:16.304Z,-39.78
2022-11-05T06:12:16.269Z,-39.78
2022-11-05T06:13:16.266Z,-39.78
2022-11-05T06:14:16.232Z,-39.78
2022-11-05T06:15:16.218Z,-39.78
2022-11-05T06:16:16.211Z,-39.78
2022-11-05T06:17:16.235Z,-39.78
2022-11-05T06:18:16.173Z,-39.78
2022-11-05T06:19:16.162Z,-39.78
2022-11-05T06:20:16.151Z,-39.78
2022-11-05T06:21:16.158Z,-39.78
2022-11-05T06:22:16.115Z,-39.78
2022-11-05T06:23:16.105Z,-39.78
2022-11-05T06:24:16.094Z,-39.78
2022-11-05T06:25:18.337Z,-39.78
2022-11-05T06:26:17.156Z,-39.78
2022-11-05T06:27:16.067Z,-39.78
2022-11-05T06:28:16.112Z,-39.78
2022-11-05T06:29:16.027Z,-39.78
2022-11-05T06:30:16.016Z,-39.78
2022-11-05T06:31:16.064Z,-39.78
2022-11-05T06:32:16.037Z,-39.78
2022-11-05T06:33:15.976Z,-39.78
2022-11-05T06:34:15.957Z,-39.78
2022-11-05T06:35:15.946Z,-39.78
2022-11-05T06:36:15.962Z,-39.78
2022-11-05T06:37:15.909Z,-39.78
2022-11-05T06:38:15.902Z,-39.78
2022-11-05T06:39:15.895Z,-39.78
2022-11-05T06:40:15.874Z,-39.78
2022-11-05T06:41:15.864Z,-39.78
2022-11-05T06:42:18.748Z,-39.78
2022-11-05T06:43:15.834Z,-39.78
2022-11-05T06:44:15.812Z,-39.78
2022-11-05T06:45:15.834Z,-39.78
2022-11-05T06:46:15.791Z,-39.78
2022-11-05T06:47:15.789Z,-39.78
2022-11-05T06:48:15.767Z,-39.78
2022-11-05T06:49:15.757Z,-39.78
2022-11-05T06:50:14.768Z,-39.78
2022-11-05T06:51:15.737Z,-39.78
2022-11-05T06:52:15.725Z,-39.78
2022-11-05T06:53:15.701Z,-39.78
2022-11-05T06:54:15.688Z,-39.78
2022-11-05T06:55:15.712Z,-39.78
2022-11-05T06:56:15.687Z,-39.78
2022-11-05T06:57:15.682Z,-39.78
2022-11-05T06:58:16.172Z,-39.78
2022-11-05T06:59:36.618Z,-39.78
2022-11-05T07:00:15.604Z,-39.78
2022-11-05T07:01:15.650Z,-39.78
2022-11-05T07:02:15.665Z,-39.78
2022-11-05T07:03:15.840Z,-39.78
2022-11-05T07:04:15.559Z,-39.78
2022-11-05T07:05:16.786Z,-39.78
2022-11-05T07:06:15.535Z,-39.78
2022-11-05T07:07:15.507Z,-39.78
2022-11-05T07:08:36.673Z,-39.78
2022-11-05T07:09:15.490Z,-39.78
2022-11-05T07:10:15.585Z,-39.78
2022-11-05T07:11:15.533Z,-39.78
2022-11-05T07:12:15.457Z,-39.78
2022-11-05T07:13:16.206Z,-39.78
2022-11-05T07:14:38.622Z,-39.78
2022-11-05T07:22:11.626Z,4.86
2022-11-05T07:23:13.055Z,4.88
2022-11-05T07:24:12.594Z,4.88
2022-11-05T07:25:12.586Z,4.88
2022-11-05T07:26:12.579Z,4.89
2022-11-05T07:27:12.587Z,4.89
2022-11-05T07:28:12.544Z,4.89
2022-11-05T07:29:12.565Z,4.92
2022-11-05T07:30:13.021Z,4.91
2022-11-05T07:31:12.528Z,4.92
2022-11-05T07:32:12.505Z,4.96
2022-11-05T07:33:12.914Z,5.02
2022-11-05T07:34:12.460Z,5.04
2022-11-05T07:35:12.444Z,5.05
2022-11-05T07:36:12.444Z,5.12
2022-11-05T07:37:12.419Z,5.10
2022-11-05T07:38:12.411Z,5.13
2022-11-05T07:39:12.400Z,5.13
2022-11-05T07:40:12.374Z,5.17
2022-11-05T07:41:12.386Z,5.23
2022-11-05T07:42:12.399Z,5.27
2022-11-05T07:43:12.712Z,5.30
2022-11-05T07:44:12.327Z,5.31
2022-11-05T07:45:12.304Z,5.38
2022-11-05T07:46:13.964Z,5.41
2022-11-05T07:47:12.356Z,5.46
2022-11-05T07:48:12.302Z,5.49
2022-11-05T07:49:12.278Z,5.50
2022-11-05T07:50:12.247Z,5.53
2022-11-05T07:51:12.303Z,5.55
2022-11-05T07:52:12.224Z,5.57
2022-11-05T07:53:12.579Z,5.59
2022-11-05T07:54:12.205Z,5.63
2022-11-05T07:55:12.173Z,5.64
2022-11-05T07:56:12.160Z,5.71
2022-11-05T07:57:12.141Z,5.73
2022-11-05T07:58:12.156Z,5.75
2022-11-05T07:59:12.141Z,5.81
2022-11-05T08:00:12.119Z,5.82
2022-11-05T08:01:12.202Z,5.85
2022-11-05T08:02:12.225Z,5.86
2022-11-05T08:03:12.564Z,5.88
2022-11-05T08:04:12.036Z,5.89
2022-11-05T08:05:12.035Z,5.93
2022-11-05T08:06:12.041Z,5.93
2022-11-05T08:07:12.028Z,6.01
2022-11-05T08:08:11.994Z,6.04
2022-11-05T08:09:11.989Z,6.07
2022-11-05T08:10:11.967Z,6.10
2022-11-05T08:11:11.960Z,6.18
2022-11-05T08:12:11.940Z,6.19
2022-11-05T08:13:12.462Z,6.21
2022-11-05T08:14:11.906Z,6.26
2022-11-05T08:15:11.957Z,6.30
2022-11-05T08:16:11.892Z,6.32
2022-11-05T08:17:17.390Z,6.33
2022-11-05T08:18:11.896Z,6.38
2022-11-05T08:19:11.852Z,6.38
2022-11-05T08:20:11.825Z,6.43
2022-11-05T08:21:11.845Z,6.46
2022-11-05T08:22:11.805Z,6.46
2022-11-05T08:23:12.546Z,6.51
2022-11-05T08:24:11.766Z,6.56
2022-11-05T08:25:11.770Z,6.56
2022-11-05T08:26:11.804Z,6.59
2022-11-05T08:27:11.737Z,6.62
2022-11-05T08:28:11.748Z,6.62
2022-11-05T08:29:11.701Z,6.68
2022-11-05T08:30:11.752Z,6.69
2022-11-05T08:31:11.723Z,6.73
2022-11-05T08:32:11.741Z,6.76
2022-11-05T08:33:12.046Z,6.80
2022-11-05T08:34:11.630Z,6.81
2022-11-05T08:35:11.631Z,6.84
2022-11-05T08:36:11.621Z,6.89
2022-11-05T08:37:11.623Z,6.91
2022-11-05T08:38:11.579Z,6.95
2022-11-05T08:39:16.690Z,6.97
2022-11-05T08:40:11.589Z,6.97
2022-11-05T08:41:11.559Z,6.99
2022-11-05T08:42:11.586Z,6.99
2022-11-05T08:43:11.815Z,7.07
2022-11-05T08:44:11.493Z,7.08
2022-11-05T08:45:11.511Z,7.13
2022-11-05T08:46:11.483Z,7.13
2022-11-05T08:47:11.467Z,7.15
2022-11-05T08:48:11.450Z,7.20
2022-11-05T08:49:11.436Z,7.23
2022-11-05T08:50:11.414Z,7.26
2022-11-05T08:51:11.430Z,7.34
2022-11-05T08:52:11.400Z,7.37
2022-11-05T08:53:11.779Z,7.37
2022-11-05T08:54:11.376Z,7.41
2022-11-05T08:55:11.361Z,7.45
2022-11-05T08:56:11.349Z,7.45
2022-11-05T08:57:11.345Z,7.52
2022-11-05T08:58:11.298Z,7.56
2022-11-05T08:59:11.302Z,7.59
2022-11-05T09:00:11.275Z,7.59
2022-11-05T09:01:11.331Z,7.63
2022-11-05T09:02:11.398Z,7.71
2022-11-05T09:03:11.566Z,7.74
2022-11-05T09:04:11.235Z,7.81
2022-11-05T09:05:11.278Z,7.87
2022-11-05T09:06:11.213Z,7.90
2022-11-05T09:07:11.175Z,7.90
2022-11-05T09:08:11.177Z,7.99
2022-11-05T09:09:11.166Z,7.99
2022-11-05T09:10:11.147Z,8.07
2022-11-05T09:11:11.127Z,8.10
2022-11-05T09:12:12.901Z,8.08
2022-11-05T09:13:17.740Z,8.14
2022-11-05T09:14:11.085Z,8.15
2022-11-05T09:15:11.082Z,8.22
2022-11-05T09:16:11.061Z,8.21
2022-11-05T09:17:11.035Z,8.25
2022-11-05T09:18:11.066Z,8.30
2022-11-05T09:19:11.014Z,8.35
2022-11-05T09:20:11.008Z,8.37
2022-11-05T09:21:10.991Z,8.45
2022-11-05T09:22:10.979Z,8.47
2022-11-05T09:23:11.389Z,8.51
2022-11-05T09:24:10.945Z,8.53
2022-11-05T09:25:10.931Z,8.55
2022-11-05T09:26:10.929Z,8.62
2022-11-05T09:27:10.905Z,8.65
2022-11-05T09:28:15.951Z,8.65
2022-11-05T09:29:14.361Z,8.69
2022-11-05T09:30:10.874Z,8.73
2022-11-05T09:31:10.859Z,8.79
2022-11-05T09:32:10.838Z,8.81
2022-11-05T09:33:11.169Z,8.81
2022-11-05T09:34:10.812Z,8.84
2022-11-05T09:35:10.807Z,8.86
2022-11-05T09:36:10.812Z,8.88
2022-11-05T09:37:10.767Z,8.91
2022-11-05T09:38:10.770Z,8.91
2022-11-05T09:39:10.822Z,8.91
2022-11-05T09:40:10.739Z,8.91
2022-11-05T09:41:10.723Z,8.88
2022-11-05T09:42:10.703Z,8.88
2022-11-05T09:43:11.023Z,8.91
2022-11-05T09:44:10.670Z,8.99
2022-11-05T09:45:10.678Z,9.02
2022-11-05T09:46:10.665Z,9.02
2022-11-05T09:47:10.628Z,9.09
2022-11-05T09:48:10.631Z,9.15
2022-11-05T09:49:10.619Z,9.20
2022-11-05T09:50:10.618Z,9.23
2022-11-05T09:51:10.610Z,9.23
2022-11-05T09:52:10.587Z,9.32
2022-11-05T09:53:10.850Z,9.39
2022-11-05T09:54:10.551Z,9.45
2022-11-05T09:55:10.512Z,9.56
2022-11-05T09:56:10.551Z,9.60
2022-11-05T09:57:10.496Z,9.63
2022-11-05T09:58:10.471Z,9.58
2022-11-05T09:59:10.495Z,9.58
2022-11-05T10:00:10.462Z,9.58
2022-11-05T10:01:10.578Z,9.61
2022-11-05T10:02:10.542Z,9.60
2022-11-05T10:03:10.809Z,9.68
2022-11-05T10:04:10.413Z,9.71
2022-11-05T10:05:10.681Z,9.78
2022-11-05T10:06:10.391Z,9.86
2022-11-05T10:07:10.392Z,9.93
2022-11-05T10:08:10.343Z,9.96
2022-11-05T10:09:10.385Z,9.99
2022-11-05T10:10:10.373Z,9.99
2022-11-05T10:11:10.352Z,9.99
2022-11-05T10:12:10.297Z,10.01
2022-11-05T10:13:10.580Z,10.06
2022-11-05T10:14:10.308Z,10.12
2022-11-05T10:15:10.247Z,10.14
2022-11-05T10:16:10.259Z,10.19
2022-11-05T10:17:10.239Z,10.24
2022-11-05T10:18:10.232Z,10.21
2022-11-05T10:19:10.194Z,10.25
2022-11-05T10:20:10.261Z,10.26
2022-11-05T10:21:10.184Z,10.30
2022-11-05T10:22:10.181Z,10.37
2022-11-05T10:23:10.548Z,10.36
2022-11-05T10:24:10.180Z,10.39
2022-11-05T10:25:10.120Z,10.40
2022-11-05T10:26:10.122Z,10.46
2022-11-05T10:27:10.086Z,10.55
2022-11-05T10:28:10.073Z,10.55
2022-11-05T10:29:10.072Z,10.56
2022-11-05T10:30:10.335Z,10.56
2022-11-05T10:31:10.103Z,10.60
2022-11-05T10:32:10.022Z,10.63
2022-11-05T10:33:10.328Z,10.70
2022-11-05T10:34:09.999Z,10.80
2022-11-05T10:35:09.977Z,10.83
2022-11-05T10:36:09.980Z,10.89
2022-11-05T10:37:09.959Z,10.95
2022-11-05T10:38:09.974Z,11.02
2022-11-05T10:39:09.929Z,11.09
2022-11-05T10:40:10.020Z,11.10
2022-11-05T10:41:09.939Z,11.17
2022-11-05T10:42:09.884Z,11.21
2022-11-05T10:43:10.171Z,11.27
2022-11-05T10:44:13.485Z,11.28
2022-11-05T10:45:09.897Z,11.34
2022-11-05T10:46:09.841Z,11.36
2022-11-05T10:47:09.828Z,11.43
2022-11-05T10:48:09.811Z,11.50
2022-11-05T10:49:09.790Z,11.54
2022-11-05T10:50:09.872Z,11.64
2022-11-05T10:51:09.783Z,11.68
2022-11-05T10:52:09.748Z,11.75
2022-11-05T10:53:10.152Z,11.82
2022-11-05T10:54:09.734Z,11.83
2022-11-05T10:55:09.708Z,11.86
2022-11-05T10:56:09.713Z,11.94
2022-11-05T10:57:09.682Z,12.01
2022-11-05T10:58:09.665Z,12.12
2022-11-05T10:59:12.343Z,12.21
2022-11-05T11:00:09.707Z,12.27
2022-11-05T11:01:09.670Z,12.34
2022-11-05T11:02:09.724Z,12.33
2022-11-05T11:03:09.927Z,12.34
2022-11-05T11:04:09.587Z,12.37
2022-11-05T11:05:09.577Z,12.30
2022-11-05T11:06:09.588Z,12.29
2022-11-05T11:07:09.532Z,12.30
2022-11-05T11:08:09.574Z,12.26
2022-11-05T11:09:08.505Z,12.30
2022-11-05T11:10:09.636Z,12.30
2022-11-05T11:11:09.527Z,12.27
2022-11-05T11:12:09.489Z,12.24
2022-11-05T11:13:09.683Z,12.27
2022-11-05T11:14:09.471Z,12.29
2022-11-05T11:15:09.423Z,12.31
2022-11-05T11:16:09.451Z,12.34
2022-11-05T11:17:09.456Z,12.42
2022-11-05T11:18:09.388Z,12.42
2022-11-05T11:19:09.822Z,12.44
2022-11-05T11:20:09.402Z,12.42
2022-11-05T11:21:09.362Z,12.41
2022-11-05T11:22:09.334Z,12.42
2022-11-05T11:23:09.662Z,12.46
2022-11-05T11:24:09.301Z,12.45
2022-11-05T11:25:09.322Z,12.48
2022-11-05T11:26:09.285Z,12.48
2022-11-05T11:27:09.265Z,12.46
2022-11-05T11:28:09.266Z,12.38
2022-11-05T11:29:09.255Z,12.38
2022-11-05T11:30:09.339Z,12.38
2022-11-05T11:31:09.219Z,12.34
2022-11-05T11:32:09.199Z,12.41
2022-11-05T11:33:09.618Z,12.41
2022-11-05T11:34:09.209Z,12.44
2022-11-05T11:35:09.203Z,12.48
2022-11-05T11:36:09.142Z,12.45
2022-11-05T11:37:09.141Z,12.46
2022-11-05T11:38:09.124Z,12.46
2022-11-05T11:39:09.099Z,12.45
2022-11-05T11:40:10.205Z,12.42
2022-11-05T11:41:09.073Z,12.39
2022-11-05T11:42:09.073Z,12.37
2022-11-05T11:43:09.261Z,12.37
2022-11-05T11:44:09.044Z,12.34
2022-11-05T11:45:09.075Z,12.31
2022-11-05T11:46:14.034Z,12.33
2022-11-05T11:47:09.019Z,12.30
2022-11-05T11:48:08.968Z,12.27
2022-11-05T11:49:08.982Z,12.26
2022-11-05T11:50:08.986Z,12.20
2022-11-05T11:51:08.939Z,12.15
2022-11-05T11:52:08.931Z,12.19
2022-11-05T11:53:09.250Z,12.19
2022-11-05T11:54:08.907Z,12.21
2022-11-05T11:55:08.884Z,12.27
2022-11-05T11:56:08.897Z,12.31
2022-11-05T11:57:12.838Z,12.31
2022-11-05T11:58:08.849Z,12.39
2022-11-05T11:59:08.860Z,12.44
2022-11-05T12:00:09.870Z,12.46
2022-11-05T12:01:08.808Z,12.49
2022-11-05T12:02:08.894Z,12.54
2022-11-05T12:03:08.791Z,12.56
2022-11-05T12:04:08.762Z,12.57
2022-11-05T12:05:08.754Z,12.54
2022-11-05T12:06:08.742Z,12.57
2022-11-05T12:07:08.723Z,12.56
2022-11-05T12:08:08.713Z,12.54
2022-11-05T12:09:08.715Z,12.52
2022-11-05T12:10:08.681Z,12.52
2022-11-05T12:11:08.667Z,12.49
2022-11-05T12:12:08.666Z,12.48
2022-11-05T12:13:08.965Z,12.49
2022-11-05T12:14:08.627Z,12.48
2022-11-05T12:15:08.615Z,12.46
2022-11-05T12:16:08.616Z,12.48
2022-11-05T12:17:08.605Z,12.46
2022-11-05T12:18:08.588Z,12.48
2022-11-05T12:19:07.559Z,12.51
2022-11-05T12:20:08.819Z,12.48
2022-11-05T12:21:08.700Z,12.49
2022-11-05T12:22:08.542Z,12.51
2022-11-05T12:23:08.813Z,12.51
2022-11-05T12:24:08.522Z,12.46
2022-11-05T12:25:08.475Z,12.45
2022-11-05T12:26:08.455Z,12.46
2022-11-05T12:27:08.452Z,12.44
2022-11-05T12:28:08.431Z,12.46
2022-11-05T12:29:22.823Z,12.48
2022-11-05T12:30:08.458Z,12.49
2022-11-05T12:31:08.431Z,12.51
2022-11-05T12:32:08.519Z,12.51
2022-11-05T12:33:08.438Z,12.51
2022-11-05T12:34:08.366Z,12.57
2022-11-05T12:35:08.423Z,12.59
2022-11-05T12:36:08.323Z,12.63
2022-11-05T12:37:08.304Z,12.64
2022-11-05T12:38:08.312Z,12.69
2022-11-05T12:39:08.288Z,12.70
2022-11-05T12:40:08.273Z,12.70
2022-11-05T12:41:08.282Z,12.69
2022-11-05T12:42:08.275Z,12.74
2022-11-05T12:43:11.717Z,12.75
2022-11-05T12:44:08.216Z,12.77
2022-11-05T12:45:08.206Z,12.75
2022-11-05T12:46:08.203Z,12.69
2022-11-05T12:47:08.195Z,12.69
2022-11-05T12:48:08.168Z,12.69
2022-11-05T12:49:08.160Z,12.70
2022-11-05T12:50:08.130Z,12.67
2022-11-05T12:51:08.150Z,12.66